Brighton, Missouri
Current Conditions -  °F | °C
As of 8:52 AM on Saturday 01 Nov 2014 (Local Time) from KSGF Reporting Station
Clear Clear  
Wind Chill: 30°   Ceiling: Unl
Heat Index: 30°   Visibility: 10mi
Dew Point: 23°   Wind: 0mph
Humidity: 75%   Direction: NA
Pressure: 30.45"   Gusts: NA
Location:  37.46°N, 93.35°W
Report Text: KSGF 011352Z 00000KT 10SM CLR M01/M05 A3045 RMK AO2 SLP325 T10111050
Loading
Personal Weather Stations






























Interactive Weather Map
Tropical Storm Tracking
New forecast layout! Learn more

10-Day Weather Forecast

Advertisements
Track Severe Weather on mobile